sensor_id;sensor_type;location;lat;lon;timestamp;P1;durP1;ratioP1;P2;durP2;ratioP2
59207;SDS011;44977;53.132;6.408;2022-11-06T00:01:25;10.27;;;5.75;;
59207;SDS011;44977;53.132;6.408;2022-11-06T00:06:26;11.32;;;6.15;;
59207;SDS011;44977;53.132;6.408;2022-11-06T00:11:45;10.68;;;6.20;;
59207;SDS011;44977;53.132;6.408;2022-11-06T00:16:47;11.15;;;6.75;;
59207;SDS011;44977;53.132;6.408;2022-11-06T00:21:48;12.98;;;7.15;;
59207;SDS011;44977;53.132;6.408;2022-11-06T00:26:48;12.10;;;6.70;;
59207;SDS011;44977;53.132;6.408;2022-11-06T00:31:49;11.30;;;7.20;;
59207;SDS011;44977;53.132;6.408;2022-11-06T00:36:50;14.02;;;8.43;;
59207;SDS011;44977;53.132;6.408;2022-11-06T00:41:50;11.85;;;7.90;;
59207;SDS011;44977;53.132;6.408;2022-11-06T00:46:51;12.50;;;8.05;;
59207;SDS011;44977;53.132;6.408;2022-11-06T00:51:52;13.48;;;8.40;;
59207;SDS011;44977;53.132;6.408;2022-11-06T00:56:53;15.82;;;8.85;;
59207;SDS011;44977;53.132;6.408;2022-11-06T01:01:53;11.93;;;8.95;;
59207;SDS011;44977;53.132;6.408;2022-11-06T01:06:54;13.10;;;8.80;;
59207;SDS011;44977;53.132;6.408;2022-11-06T01:11:57;16.80;;;9.30;;
59207;SDS011;44977;53.132;6.408;2022-11-06T01:16:59;12.15;;;8.73;;
59207;SDS011;44977;53.132;6.408;2022-11-06T01:21:59;12.80;;;8.98;;
59207;SDS011;44977;53.132;6.408;2022-11-06T01:27:00;17.25;;;10.32;;
59207;SDS011;44977;53.132;6.408;2022-11-06T01:32:01;14.38;;;9.43;;
59207;SDS011;44977;53.132;6.408;2022-11-06T01:37:02;15.77;;;10.05;;
59207;SDS011;44977;53.132;6.408;2022-11-06T01:42:02;16.17;;;10.32;;
59207;SDS011;44977;53.132;6.408;2022-11-06T01:47:04;14.25;;;10.80;;
59207;SDS011;44977;53.132;6.408;2022-11-06T01:52:17;15.75;;;10.35;;
59207;SDS011;44977;53.132;6.408;2022-11-06T01:57:19;14.93;;;10.90;;
59207;SDS011;44977;53.132;6.408;2022-11-06T02:02:21;13.20;;;10.60;;
59207;SDS011;44977;53.132;6.408;2022-11-06T02:07:22;15.95;;;11.13;;
59207;SDS011;44977;53.132;6.408;2022-11-06T02:28:30;16.65;;;10.50;;
59207;SDS011;44977;53.132;6.408;2022-11-06T02:33:36;13.77;;;10.90;;
59207;SDS011;44977;53.132;6.408;2022-11-06T02:38:45;16.83;;;12.25;;
59207;SDS011;44977;53.132;6.408;2022-11-06T02:43:50;13.63;;;11.60;;
59207;SDS011;44977;53.132;6.408;2022-11-06T02:48:58;15.02;;;11.27;;
59207;SDS011;44977;53.132;6.408;2022-11-06T02:54:13;14.55;;;11.15;;
59207;SDS011;44977;53.132;6.408;2022-11-06T03:10:26;13.82;;;11.25;;
59207;SDS011;44977;53.132;6.408;2022-11-06T03:15:33;15.23;;;11.82;;
59207;SDS011;44977;53.132;6.408;2022-11-06T03:20:55;14.60;;;11.95;;
59207;SDS011;44977;53.132;6.408;2022-11-06T03:31:10;17.77;;;11.57;;
59207;SDS011;44977;53.132;6.408;2022-11-06T03:36:24;13.48;;;11.15;;
59207;SDS011;44977;53.132;6.408;2022-11-06T03:41:47;14.13;;;11.95;;
59207;SDS011;44977;53.132;6.408;2022-11-06T03:46:56;14.57;;;11.70;;
59207;SDS011;44977;53.132;6.408;2022-11-06T03:52:04;18.85;;;11.10;;
59207;SDS011;44977;53.132;6.408;2022-11-06T03:57:12;15.68;;;11.73;;
59207;SDS011;44977;53.132;6.408;2022-11-06T04:02:19;14.68;;;11.45;;
59207;SDS011;44977;53.132;6.408;2022-11-06T04:07:22;14.40;;;10.75;;
59207;SDS011;44977;53.132;6.408;2022-11-06T04:12:28;15.30;;;11.60;;
59207;SDS011;44977;53.132;6.408;2022-11-06T04:17:48;14.13;;;11.57;;
59207;SDS011;44977;53.132;6.408;2022-11-06T04:22:53;16.52;;;11.85;;
59207;SDS011;44977;53.132;6.408;2022-11-06T04:33:50;14.75;;;10.82;;
59207;SDS011;44977;53.132;6.408;2022-11-06T04:44:14;13.23;;;10.30;;
59207;SDS011;44977;53.132;6.408;2022-11-06T04:49:24;15.75;;;10.65;;
59207;SDS011;44977;53.132;6.408;2022-11-06T04:54:28;13.57;;;10.68;;
59207;SDS011;44977;53.132;6.408;2022-11-06T04:59:29;12.77;;;10.40;;
59207;SDS011;44977;53.132;6.408;2022-11-06T05:04:34;15.55;;;10.55;;
59207;SDS011;44977;53.132;6.408;2022-11-06T05:09:34;15.50;;;9.68;;
59207;SDS011;44977;53.132;6.408;2022-11-06T05:14:35;13.82;;;10.05;;
59207;SDS011;44977;53.132;6.408;2022-11-06T05:19:36;15.63;;;10.02;;
59207;SDS011;44977;53.132;6.408;2022-11-06T05:24:36;13.75;;;9.85;;
59207;SDS011;44977;53.132;6.408;2022-11-06T05:29:37;15.38;;;9.63;;
59207;SDS011;44977;53.132;6.408;2022-11-06T05:34:37;13.13;;;9.85;;
59207;SDS011;44977;53.132;6.408;2022-11-06T05:39:38;12.82;;;8.98;;
59207;SDS011;44977;53.132;6.408;2022-11-06T05:44:39;13.35;;;8.43;;
59207;SDS011;44977;53.132;6.408;2022-11-06T05:49:40;13.60;;;8.65;;
59207;SDS011;44977;53.132;6.408;2022-11-06T05:54:40;13.60;;;8.73;;
59207;SDS011;44977;53.132;6.408;2022-11-06T05:59:41;14.02;;;8.48;;
59207;SDS011;44977;53.132;6.408;2022-11-06T06:04:42;12.82;;;7.78;;
59207;SDS011;44977;53.132;6.408;2022-11-06T06:09:43;10.73;;;8.27;;
59207;SDS011;44977;53.132;6.408;2022-11-06T06:14:44;12.90;;;8.23;;
59207;SDS011;44977;53.132;6.408;2022-11-06T06:19:45;12.02;;;7.60;;
59207;SDS011;44977;53.132;6.408;2022-11-06T06:24:46;12.60;;;8.20;;
59207;SDS011;44977;53.132;6.408;2022-11-06T06:29:46;13.57;;;7.50;;
59207;SDS011;44977;53.132;6.408;2022-11-06T06:34:47;12.40;;;7.45;;
59207;SDS011;44977;53.132;6.408;2022-11-06T06:39:48;13.50;;;8.35;;
59207;SDS011;44977;53.132;6.408;2022-11-06T06:44:48;13.38;;;7.13;;
59207;SDS011;44977;53.132;6.408;2022-11-06T06:49:49;13.07;;;6.80;;
59207;SDS011;44977;53.132;6.408;2022-11-06T06:54:50;13.95;;;6.72;;
59207;SDS011;44977;53.132;6.408;2022-11-06T06:59:50;11.52;;;6.50;;
59207;SDS011;44977;53.132;6.408;2022-11-06T07:04:51;11.80;;;6.55;;
59207;SDS011;44977;53.132;6.408;2022-11-06T07:09:52;11.13;;;6.20;;
59207;SDS011;44977;53.132;6.408;2022-11-06T07:14:52;12.20;;;6.10;;
59207;SDS011;44977;53.132;6.408;2022-11-06T07:19:53;13.05;;;5.65;;
59207;SDS011;44977;53.132;6.408;2022-11-06T07:24:54;13.07;;;6.15;;
59207;SDS011;44977;53.132;6.408;2022-11-06T07:29:54;13.40;;;5.68;;
59207;SDS011;44977;53.132;6.408;2022-11-06T07:34:55;13.15;;;6.13;;
59207;SDS011;44977;53.132;6.408;2022-11-06T07:39:56;14.13;;;6.50;;
59207;SDS011;44977;53.132;6.408;2022-11-06T07:44:56;12.85;;;5.75;;
59207;SDS011;44977;53.132;6.408;2022-11-06T07:49:57;9.82;;;5.78;;
59207;SDS011;44977;53.132;6.408;2022-11-06T07:54:58;11.07;;;4.97;;
59207;SDS011;44977;53.132;6.408;2022-11-06T07:59:59;12.45;;;5.32;;
59207;SDS011;44977;53.132;6.408;2022-11-06T08:04:59;14.23;;;5.00;;
59207;SDS011;44977;53.132;6.408;2022-11-06T08:10:00;11.35;;;4.72;;
59207;SDS011;44977;53.132;6.408;2022-11-06T08:15:01;13.68;;;5.10;;
59207;SDS011;44977;53.132;6.408;2022-11-06T08:20:01;11.10;;;5.10;;
59207;SDS011;44977;53.132;6.408;2022-11-06T08:25:03;11.75;;;5.20;;
59207;SDS011;44977;53.132;6.408;2022-11-06T08:30:04;12.48;;;4.57;;
59207;SDS011;44977;53.132;6.408;2022-11-06T08:35:05;14.68;;;5.30;;
59207;SDS011;44977;53.132;6.408;2022-11-06T08:40:06;13.00;;;5.18;;
59207;SDS011;44977;53.132;6.408;2022-11-06T08:45:08;10.13;;;4.70;;
59207;SDS011;44977;53.132;6.408;2022-11-06T08:50:09;10.25;;;4.50;;
59207;SDS011;44977;53.132;6.408;2022-11-06T08:55:09;9.73;;;4.72;;
59207;SDS011;44977;53.132;6.408;2022-11-06T09:00:10;10.73;;;4.63;;
59207;SDS011;44977;53.132;6.408;2022-11-06T09:05:11;11.07;;;4.38;;
59207;SDS011;44977;53.132;6.408;2022-11-06T09:10:12;10.15;;;4.35;;
59207;SDS011;44977;53.132;6.408;2022-11-06T09:15:13;10.02;;;4.20;;
59207;SDS011;44977;53.132;6.408;2022-11-06T09:20:14;9.07;;;4.03;;
59207;SDS011;44977;53.132;6.408;2022-11-06T09:25:17;12.45;;;4.22;;
59207;SDS011;44977;53.132;6.408;2022-11-06T09:30:19;10.13;;;3.92;;
59207;SDS011;44977;53.132;6.408;2022-11-06T09:35:22;10.23;;;3.72;;
59207;SDS011;44977;53.132;6.408;2022-11-06T09:45:42;10.60;;;4.18;;
59207;SDS011;44977;53.132;6.408;2022-11-06T09:56:13;10.45;;;3.72;;
59207;SDS011;44977;53.132;6.408;2022-11-06T10:01:18;9.57;;;3.60;;
59207;SDS011;44977;53.132;6.408;2022-11-06T10:06:22;9.63;;;3.70;;
59207;SDS011;44977;53.132;6.408;2022-11-06T10:11:29;9.52;;;3.10;;
59207;SDS011;44977;53.132;6.408;2022-11-06T10:22:03;11.35;;;3.67;;
59207;SDS011;44977;53.132;6.408;2022-11-06T10:27:27;7.72;;;3.00;;
59207;SDS011;44977;53.132;6.408;2022-11-06T10:32:43;10.63;;;3.28;;
59207;SDS011;44977;53.132;6.408;2022-11-06T10:37:54;8.52;;;2.90;;
59207;SDS011;44977;53.132;6.408;2022-11-06T10:43:05;9.65;;;3.17;;
59207;SDS011;44977;53.132;6.408;2022-11-06T10:48:32;9.90;;;2.90;;
59207;SDS011;44977;53.132;6.408;2022-11-06T10:53:46;7.82;;;2.78;;
59207;SDS011;44977;53.132;6.408;2022-11-06T10:58:56;10.63;;;3.25;;
59207;SDS011;44977;53.132;6.408;2022-11-06T11:03:57;8.75;;;3.03;;
59207;SDS011;44977;53.132;6.408;2022-11-06T11:08:58;9.68;;;3.25;;
59207;SDS011;44977;53.132;6.408;2022-11-06T11:24:24;8.18;;;3.30;;
59207;SDS011;44977;53.132;6.408;2022-11-06T11:29:26;9.13;;;3.25;;
59207;SDS011;44977;53.132;6.408;2022-11-06T11:34:31;9.95;;;3.72;;
59207;SDS011;44977;53.132;6.408;2022-11-06T11:39:36;9.30;;;3.35;;
59207;SDS011;44977;53.132;6.408;2022-11-06T11:44:41;8.00;;;3.27;;
59207;SDS011;44977;53.132;6.408;2022-11-06T11:49:42;11.32;;;3.55;;
59207;SDS011;44977;53.132;6.408;2022-11-06T11:54:45;10.98;;;3.55;;
59207;SDS011;44977;53.132;6.408;2022-11-06T11:59:50;9.82;;;3.40;;
59207;SDS011;44977;53.132;6.408;2022-11-06T12:04:56;9.35;;;3.30;;
59207;SDS011;44977;53.132;6.408;2022-11-06T12:10:11;9.70;;;3.80;;
59207;SDS011;44977;53.132;6.408;2022-11-06T12:42:59;8.65;;;2.90;;
59207;SDS011;44977;53.132;6.408;2022-11-06T12:48:33;9.65;;;2.83;;
59207;SDS011;44977;53.132;6.408;2022-11-06T12:53:58;7.57;;;2.67;;
59207;SDS011;44977;53.132;6.408;2022-11-06T13:04:36;9.65;;;2.50;;
59207;SDS011;44977;53.132;6.408;2022-11-06T13:09:43;8.30;;;2.80;;
59207;SDS011;44977;53.132;6.408;2022-11-06T13:20:16;9.38;;;2.38;;
59207;SDS011;44977;53.132;6.408;2022-11-06T13:25:33;6.53;;;2.40;;
59207;SDS011;44977;53.132;6.408;2022-11-06T13:30:53;7.50;;;2.70;;
59207;SDS011;44977;53.132;6.408;2022-11-06T13:35:56;7.60;;;2.40;;
59207;SDS011;44977;53.132;6.408;2022-11-06T13:40:59;7.53;;;2.55;;
59207;SDS011;44977;53.132;6.408;2022-11-06T13:51:50;6.00;;;2.00;;
59207;SDS011;44977;53.132;6.408;2022-11-06T14:07:30;8.25;;;2.50;;
59207;SDS011;44977;53.132;6.408;2022-11-06T14:12:32;7.53;;;2.50;;
59207;SDS011;44977;53.132;6.408;2022-11-06T14:17:33;8.85;;;2.58;;
59207;SDS011;44977;53.132;6.408;2022-11-06T14:22:35;9.80;;;2.10;;
59207;SDS011;44977;53.132;6.408;2022-11-06T14:28:01;7.25;;;2.20;;
59207;SDS011;44977;53.132;6.408;2022-11-06T14:33:07;9.13;;;2.33;;
59207;SDS011;44977;53.132;6.408;2022-11-06T14:38:14;8.65;;;2.20;;
59207;SDS011;44977;53.132;6.408;2022-11-06T14:43:30;8.38;;;2.10;;
59207;SDS011;44977;53.132;6.408;2022-11-06T14:48:37;8.25;;;2.17;;
59207;SDS011;44977;53.132;6.408;2022-11-06T14:53:48;7.20;;;2.50;;
59207;SDS011;44977;53.132;6.408;2022-11-06T14:59:01;12.05;;;2.65;;
59207;SDS011;44977;53.132;6.408;2022-11-06T15:04:04;7.60;;;2.28;;
59207;SDS011;44977;53.132;6.408;2022-11-06T15:19:25;6.95;;;2.10;;
59207;SDS011;44977;53.132;6.408;2022-11-06T15:24:35;7.00;;;1.95;;
59207;SDS011;44977;53.132;6.408;2022-11-06T15:29:41;7.32;;;2.17;;
59207;SDS011;44977;53.132;6.408;2022-11-06T15:34:48;9.73;;;4.25;;
59207;SDS011;44977;53.132;6.408;2022-11-06T15:40:00;9.18;;;3.10;;
59207;SDS011;44977;53.132;6.408;2022-11-06T15:50:15;9.68;;;3.17;;
59207;SDS011;44977;53.132;6.408;2022-11-06T15:56:16;8.25;;;3.00;;
59207;SDS011;44977;53.132;6.408;2022-11-06T16:00:54;8.93;;;3.40;;
59207;SDS011;44977;53.132;6.408;2022-11-06T16:05:55;10.68;;;3.83;;
59207;SDS011;44977;53.132;6.408;2022-11-06T16:11:00;11.88;;;3.95;;
59207;SDS011;44977;53.132;6.408;2022-11-06T16:16:02;8.93;;;3.78;;
59207;SDS011;44977;53.132;6.408;2022-11-06T16:21:07;11.48;;;4.47;;
59207;SDS011;44977;53.132;6.408;2022-11-06T16:26:20;9.80;;;4.80;;
59207;SDS011;44977;53.132;6.408;2022-11-06T16:36:30;9.93;;;4.30;;
59207;SDS011;44977;53.132;6.408;2022-11-06T16:52:25;7.85;;;3.30;;
59207;SDS011;44977;53.132;6.408;2022-11-06T17:02:35;8.52;;;2.30;;
59207;SDS011;44977;53.132;6.408;2022-11-06T17:07:37;5.50;;;1.83;;
59207;SDS011;44977;53.132;6.408;2022-11-06T17:12:39;5.35;;;1.85;;
59207;SDS011;44977;53.132;6.408;2022-11-06T17:17:39;5.95;;;1.67;;
59207;SDS011;44977;53.132;6.408;2022-11-06T17:22:41;5.53;;;1.85;;
59207;SDS011;44977;53.132;6.408;2022-11-06T17:27:42;9.60;;;2.13;;
59207;SDS011;44977;53.132;6.408;2022-11-06T17:32:42;4.95;;;1.55;;
59207;SDS011;44977;53.132;6.408;2022-11-06T17:37:43;5.43;;;1.90;;
59207;SDS011;44977;53.132;6.408;2022-11-06T17:42:44;5.18;;;1.60;;
59207;SDS011;44977;53.132;6.408;2022-11-06T17:47:44;5.30;;;1.70;;
59207;SDS011;44977;53.132;6.408;2022-11-06T17:52:45;5.68;;;2.15;;
59207;SDS011;44977;53.132;6.408;2022-11-06T17:57:46;5.43;;;1.83;;
59207;SDS011;44977;53.132;6.408;2022-11-06T18:02:46;4.70;;;1.88;;
59207;SDS011;44977;53.132;6.408;2022-11-06T18:07:47;5.85;;;2.22;;
59207;SDS011;44977;53.132;6.408;2022-11-06T18:12:47;5.93;;;2.03;;
59207;SDS011;44977;53.132;6.408;2022-11-06T18:17:50;5.07;;;2.17;;
59207;SDS011;44977;53.132;6.408;2022-11-06T18:22:51;6.05;;;2.20;;
59207;SDS011;44977;53.132;6.408;2022-11-06T18:27:51;3.95;;;1.83;;
59207;SDS011;44977;53.132;6.408;2022-11-06T18:32:52;5.50;;;2.03;;
59207;SDS011;44977;53.132;6.408;2022-11-06T18:37:52;6.75;;;2.50;;
59207;SDS011;44977;53.132;6.408;2022-11-06T18:42:53;5.18;;;2.20;;
59207;SDS011;44977;53.132;6.408;2022-11-06T18:47:54;6.07;;;2.30;;
59207;SDS011;44977;53.132;6.408;2022-11-06T18:52:55;6.03;;;2.22;;
59207;SDS011;44977;53.132;6.408;2022-11-06T18:57:55;5.32;;;2.25;;
59207;SDS011;44977;53.132;6.408;2022-11-06T19:02:56;6.45;;;2.63;;
59207;SDS011;44977;53.132;6.408;2022-11-06T19:07:57;7.35;;;2.80;;
59207;SDS011;44977;53.132;6.408;2022-11-06T19:12:58;6.10;;;2.50;;
59207;SDS011;44977;53.132;6.408;2022-11-06T19:17:59;7.63;;;2.80;;
59207;SDS011;44977;53.132;6.408;2022-11-06T19:23:00;6.32;;;2.90;;
59207;SDS011;44977;53.132;6.408;2022-11-06T19:28:00;7.65;;;3.25;;
59207;SDS011;44977;53.132;6.408;2022-11-06T19:33:02;8.25;;;3.60;;
59207;SDS011;44977;53.132;6.408;2022-11-06T19:38:03;7.50;;;4.03;;
59207;SDS011;44977;53.132;6.408;2022-11-06T19:43:04;10.63;;;4.47;;
59207;SDS011;44977;53.132;6.408;2022-11-06T19:48:06;7.03;;;3.78;;
59207;SDS011;44977;53.132;6.408;2022-11-06T19:53:09;9.05;;;3.92;;
59207;SDS011;44977;53.132;6.408;2022-11-06T19:58:10;6.88;;;4.00;;
59207;SDS011;44977;53.132;6.408;2022-11-06T20:03:13;6.75;;;4.15;;
59207;SDS011;44977;53.132;6.408;2022-11-06T20:08:15;7.30;;;4.40;;
59207;SDS011;44977;53.132;6.408;2022-11-06T20:13:16;7.60;;;4.60;;
59207;SDS011;44977;53.132;6.408;2022-11-06T20:18:17;8.00;;;4.63;;
59207;SDS011;44977;53.132;6.408;2022-11-06T20:23:17;7.85;;;4.63;;
59207;SDS011;44977;53.132;6.408;2022-11-06T20:28:19;9.10;;;5.13;;
59207;SDS011;44977;53.132;6.408;2022-11-06T20:33:20;10.05;;;5.85;;
59207;SDS011;44977;53.132;6.408;2022-11-06T20:38:21;8.80;;;6.38;;
59207;SDS011;44977;53.132;6.408;2022-11-06T20:43:22;9.65;;;6.63;;
59207;SDS011;44977;53.132;6.408;2022-11-06T20:48:23;11.43;;;7.22;;
59207;SDS011;44977;53.132;6.408;2022-11-06T20:53:23;11.23;;;7.20;;
59207;SDS011;44977;53.132;6.408;2022-11-06T20:58:24;9.68;;;7.40;;
59207;SDS011;44977;53.132;6.408;2022-11-06T21:03:26;10.38;;;7.70;;
59207;SDS011;44977;53.132;6.408;2022-11-06T21:08:27;10.50;;;7.30;;
59207;SDS011;44977;53.132;6.408;2022-11-06T21:13:30;11.30;;;7.88;;
59207;SDS011;44977;53.132;6.408;2022-11-06T21:18:35;11.40;;;7.95;;
59207;SDS011;44977;53.132;6.408;2022-11-06T21:23:37;10.50;;;8.13;;
59207;SDS011;44977;53.132;6.408;2022-11-06T21:28:39;11.45;;;8.07;;
59207;SDS011;44977;53.132;6.408;2022-11-06T21:33:41;13.60;;;8.20;;
59207;SDS011;44977;53.132;6.408;2022-11-06T21:38:42;11.98;;;8.23;;
59207;SDS011;44977;53.132;6.408;2022-11-06T21:43:43;10.93;;;8.38;;
59207;SDS011;44977;53.132;6.408;2022-11-06T21:48:47;11.80;;;8.75;;
59207;SDS011;44977;53.132;6.408;2022-11-06T21:53:48;12.73;;;9.43;;
59207;SDS011;44977;53.132;6.408;2022-11-06T21:59:12;12.60;;;9.02;;
59207;SDS011;44977;53.132;6.408;2022-11-06T22:04:13;13.52;;;9.73;;
59207;SDS011;44977;53.132;6.408;2022-11-06T22:09:14;11.82;;;9.43;;
59207;SDS011;44977;53.132;6.408;2022-11-06T22:14:15;15.13;;;10.57;;
59207;SDS011;44977;53.132;6.408;2022-11-06T22:19:16;12.07;;;10.15;;
59207;SDS011;44977;53.132;6.408;2022-11-06T22:24:16;13.02;;;10.18;;
59207;SDS011;44977;53.132;6.408;2022-11-06T22:29:17;12.65;;;10.52;;
59207;SDS011;44977;53.132;6.408;2022-11-06T22:34:18;12.82;;;10.80;;
59207;SDS011;44977;53.132;6.408;2022-11-06T22:39:18;13.55;;;11.02;;
59207;SDS011;44977;53.132;6.408;2022-11-06T22:44:19;13.73;;;11.38;;
59207;SDS011;44977;53.132;6.408;2022-11-06T22:49:20;13.20;;;10.50;;
59207;SDS011;44977;53.132;6.408;2022-11-06T22:54:20;15.15;;;11.82;;
59207;SDS011;44977;53.132;6.408;2022-11-06T22:59:21;13.70;;;10.70;;
59207;SDS011;44977;53.132;6.408;2022-11-06T23:04:22;13.50;;;11.00;;
59207;SDS011;44977;53.132;6.408;2022-11-06T23:09:22;14.13;;;11.13;;
59207;SDS011;44977;53.132;6.408;2022-11-06T23:14:23;12.85;;;10.88;;
59207;SDS011;44977;53.132;6.408;2022-11-06T23:19:24;14.15;;;10.77;;
59207;SDS011;44977;53.132;6.408;2022-11-06T23:24:26;13.00;;;10.73;;
59207;SDS011;44977;53.132;6.408;2022-11-06T23:29:26;13.57;;;11.00;;
59207;SDS011;44977;53.132;6.408;2022-11-06T23:34:27;13.90;;;10.73;;
59207;SDS011;44977;53.132;6.408;2022-11-06T23:39:28;14.60;;;10.77;;
59207;SDS011;44977;53.132;6.408;2022-11-06T23:44:28;14.23;;;11.13;;
59207;SDS011;44977;53.132;6.408;2022-11-06T23:49:48;14.75;;;11.10;;
59207;SDS011;44977;53.132;6.408;2022-11-06T23:54:48;14.82;;;10.95;;
59207;SDS011;44977;53.132;6.408;2022-11-06T23:59:49;15.68;;;11.02;;
